sensor_id;sensor_type;location;lat;lon;timestamp;pressure;altitude;pressure_sealevel;temperature;humidity
7670;BME280;3877;42.562;27.636;2022-09-12T00:00:18;100987.75;;;23.82;100.00
7670;BME280;3877;42.562;27.636;2022-09-12T00:02:51;100992.66;;;23.81;100.00
7670;BME280;3877;42.562;27.636;2022-09-12T00:05:20;101002.06;;;23.78;100.00
7670;BME280;3877;42.562;27.636;2022-09-12T00:07:47;100999.59;;;23.77;100.00
7670;BME280;3877;42.562;27.636;2022-09-12T00:10:15;101004.91;;;23.75;100.00
7670;BME280;3877;42.562;27.636;2022-09-12T00:12:43;101016.34;;;23.71;100.00
7670;BME280;3877;42.562;27.636;2022-09-12T00:15:10;101013.06;;;23.62;100.00
7670;BME280;3877;42.562;27.636;2022-09-12T00:17:38;101015.91;;;23.62;100.00
7670;BME280;3877;42.562;27.636;2022-09-12T00:20:07;100960.63;;;23.16;100.00
7670;BME280;3877;42.562;27.636;2022-09-12T00:22:36;101027.34;;;23.55;100.00
7670;BME280;3877;42.562;27.636;2022-09-12T00:25:04;101002.31;;;23.31;100.00
7670;BME280;3877;42.562;27.636;2022-09-12T00:27:32;101035.03;;;23.40;100.00
7670;BME280;3877;42.562;27.636;2022-09-12T00:29:59;101042.28;;;23.17;100.00
7670;BME280;3877;42.562;27.636;2022-09-12T00:32:26;101031.63;;;23.03;100.00
7670;BME280;3877;42.562;27.636;2022-09-12T00:34:54;101026.84;;;22.63;100.00
7670;BME280;3877;42.562;27.636;2022-09-12T00:37:21;101024.84;;;22.67;100.00
7670;BME280;3877;42.562;27.636;2022-09-12T00:39:50;101017.81;;;22.54;100.00
7670;BME280;3877;42.562;27.636;2022-09-12T00:42:17;101031.22;;;22.43;100.00
7670;BME280;3877;42.562;27.636;2022-09-12T00:44:48;101026.66;;;22.35;100.00
7670;BME280;3877;42.562;27.636;2022-09-12T00:47:20;101031.41;;;22.16;100.00
7670;BME280;3877;42.562;27.636;2022-09-12T00:49:51;101032.84;;;21.96;100.00
7670;BME280;3877;42.562;27.636;2022-09-12T00:52:24;101033.94;;;21.85;100.00
7670;BME280;3877;42.562;27.636;2022-09-12T00:54:59;101049.75;;;21.75;100.00
7670;BME280;3877;42.562;27.636;2022-09-12T00:57:32;101041.78;;;21.54;100.00
7670;BME280;3877;42.562;27.636;2022-09-12T01:00:06;101049.78;;;21.42;100.00
7670;BME280;3877;42.562;27.636;2022-09-12T01:02:36;101044.66;;;21.24;100.00
7670;BME280;3877;42.562;27.636;2022-09-12T01:05:05;101058.50;;;21.22;100.00
7670;BME280;3877;42.562;27.636;2022-09-12T01:07:34;101054.13;;;21.02;100.00
7670;BME280;3877;42.562;27.636;2022-09-12T01:10:04;101047.44;;;20.91;100.00
7670;BME280;3877;42.562;27.636;2022-09-12T01:12:32;101039.88;;;20.72;100.00
7670;BME280;3877;42.562;27.636;2022-09-12T01:15:00;101041.34;;;20.63;100.00
7670;BME280;3877;42.562;27.636;2022-09-12T01:17:31;101032.75;;;20.59;100.00
7670;BME280;3877;42.562;27.636;2022-09-12T01:20:25;101033.38;;;20.45;100.00
7670;BME280;3877;42.562;27.636;2022-09-12T01:23:32;101021.28;;;20.29;100.00
7670;BME280;3877;42.562;27.636;2022-09-12T01:26:32;101029.16;;;20.36;100.00
7670;BME280;3877;42.562;27.636;2022-09-12T01:29:18;100971.16;;;19.95;100.00
7670;BME280;3877;42.562;27.636;2022-09-12T01:31:58;101031.94;;;20.32;100.00
7670;BME280;3877;42.562;27.636;2022-09-12T01:34:35;101024.41;;;20.21;100.00
7670;BME280;3877;42.562;27.636;2022-09-12T01:37:12;101032.88;;;20.17;100.00
7670;BME280;3877;42.562;27.636;2022-09-12T01:39:48;101039.78;;;20.16;100.00
7670;BME280;3877;42.562;27.636;2022-09-12T01:42:21;101046.66;;;20.15;100.00
7670;BME280;3877;42.562;27.636;2022-09-12T01:45:00;101025.84;;;20.11;100.00
7670;BME280;3877;42.562;27.636;2022-09-12T01:47:36;101028.44;;;20.20;100.00
7670;BME280;3877;42.562;27.636;2022-09-12T01:50:07;101021.03;;;20.15;100.00
7670;BME280;3877;42.562;27.636;2022-09-12T01:52:41;100995.28;;;20.04;100.00
7670;BME280;3877;42.562;27.636;2022-09-12T01:55:13;101015.34;;;20.15;100.00
7670;BME280;3877;42.562;27.636;2022-09-12T01:57:47;101013.78;;;20.18;100.00
7670;BME280;3877;42.562;27.636;2022-09-12T02:00:15;101024.34;;;20.17;100.00
7670;BME280;3877;42.562;27.636;2022-09-12T02:02:47;101030.22;;;20.28;100.00
7670;BME280;3877;42.562;27.636;2022-09-12T02:05:21;101019.66;;;20.28;100.00
7670;BME280;3877;42.562;27.636;2022-09-12T02:07:53;101017.28;;;20.30;100.00
7670;BME280;3877;42.562;27.636;2022-09-12T02:10:25;101027.78;;;20.30;100.00
7670;BME280;3877;42.562;27.636;2022-09-12T02:12:57;101031.78;;;20.25;100.00
7670;BME280;3877;42.562;27.636;2022-09-12T02:15:33;101033.69;;;20.40;100.00
7670;BME280;3877;42.562;27.636;2022-09-12T02:18:04;101032.44;;;20.38;100.00
7670;BME280;3877;42.562;27.636;2022-09-12T02:20:34;101036.88;;;20.35;100.00
7670;BME280;3877;42.562;27.636;2022-09-12T02:23:06;101036.13;;;20.38;100.00
7670;BME280;3877;42.562;27.636;2022-09-12T02:25:37;101036.72;;;20.28;100.00
7670;BME280;3877;42.562;27.636;2022-09-12T02:28:11;101038.25;;;20.22;100.00
7670;BME280;3877;42.562;27.636;2022-09-12T02:30:53;100904.44;;;19.43;100.00
7670;BME280;3877;42.562;27.636;2022-09-12T02:33:26;101037.38;;;20.18;100.00
7670;BME280;3877;42.562;27.636;2022-09-12T02:35:57;101021.03;;;20.15;100.00
7670;BME280;3877;42.562;27.636;2022-09-12T02:38:32;101023.19;;;19.95;100.00
7670;BME280;3877;42.562;27.636;2022-09-12T02:41:01;101027.03;;;19.84;100.00
7670;BME280;3877;42.562;27.636;2022-09-12T02:43:28;101022.94;;;19.81;100.00
7670;BME280;3877;42.562;27.636;2022-09-12T02:45:55;101030.06;;;19.72;100.00
7670;BME280;3877;42.562;27.636;2022-09-12T02:48:27;101023.34;;;19.60;100.00
7670;BME280;3877;42.562;27.636;2022-09-12T02:50:56;101031.28;;;19.51;100.00
7670;BME280;3877;42.562;27.636;2022-09-12T02:53:25;101041.84;;;19.51;100.00
7670;BME280;3877;42.562;27.636;2022-09-12T02:55:53;101031.13;;;19.44;100.00
7670;BME280;3877;42.562;27.636;2022-09-12T02:58:22;101033.69;;;19.49;100.00
7670;BME280;3877;42.562;27.636;2022-09-12T03:00:55;101048.03;;;19.56;100.00
7670;BME280;3877;42.562;27.636;2022-09-12T03:03:48;101057.44;;;19.60;100.00
7670;BME280;3877;42.562;27.636;2022-09-12T03:06:27;101019.94;;;19.51;100.00
7670;BME280;3877;42.562;27.636;2022-09-12T03:09:02;101017.09;;;19.51;100.00
7670;BME280;3877;42.562;27.636;2022-09-12T03:11:48;101024.22;;;19.64;100.00
7670;BME280;3877;42.562;27.636;2022-09-12T03:14:25;101012.75;;;19.57;100.00
7670;BME280;3877;42.562;27.636;2022-09-12T03:17:06;101035.53;;;19.61;100.00
7670;BME280;3877;42.562;27.636;2022-09-12T03:19:46;101042.94;;;19.65;100.00
7670;BME280;3877;42.562;27.636;2022-09-12T03:22:22;101046.19;;;19.67;100.00
7670;BME280;3877;42.562;27.636;2022-09-12T03:24:56;101054.56;;;19.80;100.00
7670;BME280;3877;42.562;27.636;2022-09-12T03:27:30;101037.06;;;19.78;100.00
7670;BME280;3877;42.562;27.636;2022-09-12T03:29:59;101043.19;;;19.80;100.00
7670;BME280;3877;42.562;27.636;2022-09-12T03:32:43;101039.00;;;19.74;100.00
7670;BME280;3877;42.562;27.636;2022-09-12T03:35:14;101045.59;;;19.78;100.00
7670;BME280;3877;42.562;27.636;2022-09-12T03:37:42;101039.22;;;19.84;100.00
7670;BME280;3877;42.562;27.636;2022-09-12T03:40:10;101034.34;;;19.85;100.00
7670;BME280;3877;42.562;27.636;2022-09-12T03:42:38;101033.47;;;19.81;100.00
7670;BME280;3877;42.562;27.636;2022-09-12T03:45:06;101039.91;;;19.78;100.00
7670;BME280;3877;42.562;27.636;2022-09-12T03:47:34;101043.16;;;19.76;100.00
7670;BME280;3877;42.562;27.636;2022-09-12T03:50:02;101042.75;;;19.78;100.00
7670;BME280;3877;42.562;27.636;2022-09-12T03:52:30;100872.31;;;18.74;100.00
7670;BME280;3877;42.562;27.636;2022-09-12T03:54:58;101059.50;;;19.83;100.00
7670;BME280;3877;42.562;27.636;2022-09-12T03:57:25;101042.16;;;19.69;100.00
7670;BME280;3877;42.562;27.636;2022-09-12T03:59:52;101057.72;;;19.75;100.00
7670;BME280;3877;42.562;27.636;2022-09-12T04:02:19;101062.66;;;19.78;100.00
7670;BME280;3877;42.562;27.636;2022-09-12T04:04:47;101060.25;;;19.80;100.00
7670;BME280;3877;42.562;27.636;2022-09-12T04:07:14;101066.72;;;19.77;100.00
7670;BME280;3877;42.562;27.636;2022-09-12T04:09:43;101040.41;;;19.60;100.00
7670;BME280;3877;42.562;27.636;2022-09-12T04:12:11;101065.19;;;19.83;100.00
7670;BME280;3877;42.562;27.636;2022-09-12T04:14:38;101064.34;;;19.82;100.00
7670;BME280;3877;42.562;27.636;2022-09-12T04:17:06;101065.31;;;19.90;100.00
7670;BME280;3877;42.562;27.636;2022-09-12T04:19:33;101060.31;;;19.83;100.00
7670;BME280;3877;42.562;27.636;2022-09-12T04:22:00;101069.16;;;19.78;100.00
7670;BME280;3877;42.562;27.636;2022-09-12T04:24:28;101050.53;;;19.81;100.00
7670;BME280;3877;42.562;27.636;2022-09-12T04:26:57;101068.59;;;19.92;100.00
7670;BME280;3877;42.562;27.636;2022-09-12T04:29:24;101068.47;;;19.85;100.00
7670;BME280;3877;42.562;27.636;2022-09-12T04:31:52;101076.69;;;19.90;100.00
7670;BME280;3877;42.562;27.636;2022-09-12T04:34:19;101073.53;;;19.95;100.00
7670;BME280;3877;42.562;27.636;2022-09-12T04:36:47;101080.84;;;19.96;100.00
7670;BME280;3877;42.562;27.636;2022-09-12T04:39:14;101074.78;;;19.97;100.00
7670;BME280;3877;42.562;27.636;2022-09-12T04:41:41;101069.47;;;19.96;100.00
7670;BME280;3877;42.562;27.636;2022-09-12T04:44:12;101079.34;;;20.02;100.00
7670;BME280;3877;42.562;27.636;2022-09-12T04:46:41;101085.91;;;20.06;100.00
7670;BME280;3877;42.562;27.636;2022-09-12T04:49:10;101043.06;;;19.73;100.00
7670;BME280;3877;42.562;27.636;2022-09-12T04:51:40;101089.06;;;20.01;100.00
7670;BME280;3877;42.562;27.636;2022-09-12T04:54:11;101080.53;;;20.01;100.00
7670;BME280;3877;42.562;27.636;2022-09-12T04:56:41;101086.78;;;20.10;100.00
7670;BME280;3877;42.562;27.636;2022-09-12T04:59:11;101085.19;;;20.09;100.00
7670;BME280;3877;42.562;27.636;2022-09-12T05:01:39;101099.19;;;20.21;100.00
7670;BME280;3877;42.562;27.636;2022-09-12T05:04:08;101109.84;;;20.24;100.00
7670;BME280;3877;42.562;27.636;2022-09-12T05:06:36;101099.19;;;20.21;100.00
7670;BME280;3877;42.562;27.636;2022-09-12T05:09:05;101101.72;;;20.26;100.00
7670;BME280;3877;42.562;27.636;2022-09-12T05:11:35;101103.75;;;20.26;100.00
7670;BME280;3877;42.562;27.636;2022-09-12T05:14:03;101100.94;;;20.29;100.00
7670;BME280;3877;42.562;27.636;2022-09-12T05:16:32;101080.59;;;20.27;100.00
7670;BME280;3877;42.562;27.636;2022-09-12T05:18:59;101089.97;;;20.50;100.00
7670;BME280;3877;42.562;27.636;2022-09-12T05:21:27;101080.72;;;20.57;100.00
7670;BME280;3877;42.562;27.636;2022-09-12T05:23:55;101074.31;;;20.64;100.00
7670;BME280;3877;42.562;27.636;2022-09-12T05:26:24;101079.03;;;20.79;100.00
7670;BME280;3877;42.562;27.636;2022-09-12T05:28:52;101075.81;;;20.80;100.00
7670;BME280;3877;42.562;27.636;2022-09-12T05:31:22;101073.53;;;20.93;100.00
7670;BME280;3877;42.562;27.636;2022-09-12T05:33:52;101075.59;;;21.22;100.00
7670;BME280;3877;42.562;27.636;2022-09-12T05:36:21;101061.22;;;21.82;100.00
7670;BME280;3877;42.562;27.636;2022-09-12T05:38:49;101056.34;;;22.23;100.00
7670;BME280;3877;42.562;27.636;2022-09-12T05:41:18;101057.19;;;22.82;100.00
7670;BME280;3877;42.562;27.636;2022-09-12T05:43:46;101056.03;;;22.90;100.00
7670;BME280;3877;42.562;27.636;2022-09-12T05:46:18;101055.22;;;22.89;100.00
7670;BME280;3877;42.562;27.636;2022-09-12T05:48:46;101052.81;;;22.98;100.00
7670;BME280;3877;42.562;27.636;2022-09-12T05:51:18;101056.06;;;22.93;100.00
7670;BME280;3877;42.562;27.636;2022-09-12T05:53:47;101069.41;;;22.75;100.00
7670;BME280;3877;42.562;27.636;2022-09-12T05:56:17;101055.75;;;22.51;100.00
7670;BME280;3877;42.562;27.636;2022-09-12T05:58:47;101061.22;;;22.22;100.00
7670;BME280;3877;42.562;27.636;2022-09-12T06:01:16;101024.91;;;21.75;100.00
7670;BME280;3877;42.562;27.636;2022-09-12T06:03:44;101068.19;;;21.85;100.00
7670;BME280;3877;42.562;27.636;2022-09-12T06:06:13;101084.34;;;21.73;100.00
7670;BME280;3877;42.562;27.636;2022-09-12T06:08:44;101068.09;;;21.77;100.00
7670;BME280;3877;42.562;27.636;2022-09-12T06:11:16;101057.84;;;21.73;100.00
7670;BME280;3877;42.562;27.636;2022-09-12T06:13:45;101063.19;;;21.74;100.00
7670;BME280;3877;42.562;27.636;2022-09-12T06:16:14;101065.81;;;21.90;100.00
7670;BME280;3877;42.562;27.636;2022-09-12T06:18:46;101064.31;;;22.03;100.00
7670;BME280;3877;42.562;27.636;2022-09-12T06:21:14;101066.81;;;22.08;100.00
7670;BME280;3877;42.562;27.636;2022-09-12T06:23:43;101059.09;;;22.12;100.00
7670;BME280;3877;42.562;27.636;2022-09-12T06:26:13;101066.22;;;22.33;100.00
7670;BME280;3877;42.562;27.636;2022-09-12T06:28:42;101067.53;;;22.46;100.00
7670;BME280;3877;42.562;27.636;2022-09-12T06:31:12;101020.00;;;22.16;100.00
7670;BME280;3877;42.562;27.636;2022-09-12T06:33:42;101066.38;;;22.54;100.00
7670;BME280;3877;42.562;27.636;2022-09-12T06:36:11;101055.78;;;22.58;100.00
7670;BME280;3877;42.562;27.636;2022-09-12T06:38:39;101070.16;;;22.68;100.00
7670;BME280;3877;42.562;27.636;2022-09-12T06:41:09;101045.19;;;22.62;100.00
7670;BME280;3877;42.562;27.636;2022-09-12T06:43:38;101064.56;;;22.86;100.00
7670;BME280;3877;42.562;27.636;2022-09-12T06:46:06;101067.88;;;22.95;100.00
7670;BME280;3877;42.562;27.636;2022-09-12T06:48:34;101060.19;;;22.99;100.00
7670;BME280;3877;42.562;27.636;2022-09-12T06:51:03;101077.78;;;23.08;100.00
7670;BME280;3877;42.562;27.636;2022-09-12T06:53:32;101011.09;;;22.83;100.00
7670;BME280;3877;42.562;27.636;2022-09-12T06:56:03;101045.91;;;23.06;100.00
7670;BME280;3877;42.562;27.636;2022-09-12T06:58:33;101054.53;;;23.17;100.00
7670;BME280;3877;42.562;27.636;2022-09-12T07:01:01;101059.06;;;23.29;100.00
7670;BME280;3877;42.562;27.636;2022-09-12T07:03:29;101048.91;;;23.35;100.00
7670;BME280;3877;42.562;27.636;2022-09-12T07:06:01;101060.41;;;23.49;100.00
7670;BME280;3877;42.562;27.636;2022-09-12T07:08:28;101065.34;;;23.56;100.00
7670;BME280;3877;42.562;27.636;2022-09-12T07:10:56;101077.66;;;23.77;100.00
7670;BME280;3877;42.562;27.636;2022-09-12T07:13:23;101071.16;;;23.87;100.00
7670;BME280;3877;42.562;27.636;2022-09-12T07:15:52;101057.28;;;24.04;100.00
7670;BME280;3877;42.562;27.636;2022-09-12T07:18:20;101064.63;;;24.15;100.00
7670;BME280;3877;42.562;27.636;2022-09-12T07:20:48;101048.34;;;24.23;100.00
7670;BME280;3877;42.562;27.636;2022-09-12T07:23:15;101063.88;;;24.18;100.00
7670;BME280;3877;42.562;27.636;2022-09-12T07:25:51;101054.88;;;24.27;100.00
7670;BME280;3877;42.562;27.636;2022-09-12T07:28:18;101048.34;;;24.37;100.00
7670;BME280;3877;42.562;27.636;2022-09-12T07:30:46;101061.38;;;24.52;100.00
7670;BME280;3877;42.562;27.636;2022-09-12T07:33:14;101054.81;;;24.76;100.00
7670;BME280;3877;42.562;27.636;2022-09-12T07:35:42;101060.97;;;24.93;100.00
7670;BME280;3877;42.562;27.636;2022-09-12T07:38:10;101060.13;;;24.96;100.00
7670;BME280;3877;42.562;27.636;2022-09-12T07:40:37;101059.28;;;25.06;100.00
7670;BME280;3877;42.562;27.636;2022-09-12T07:43:05;101058.88;;;25.07;100.00
7670;BME280;3877;42.562;27.636;2022-09-12T07:45:32;101056.44;;;25.02;100.00
7670;BME280;3877;42.562;27.636;2022-09-12T07:48:00;101052.34;;;24.93;100.00
7670;BME280;3877;42.562;27.636;2022-09-12T07:50:28;101054.75;;;25.05;100.00
7670;BME280;3877;42.562;27.636;2022-09-12T07:52:55;101055.63;;;24.98;100.00
7670;BME280;3877;42.562;27.636;2022-09-12T07:55:23;101036.69;;;25.22;100.00
7670;BME280;3877;42.562;27.636;2022-09-12T07:57:50;101055.47;;;25.34;100.00
7670;BME280;3877;42.562;27.636;2022-09-12T08:00:18;101053.81;;;25.47;100.00
7670;BME280;3877;42.562;27.636;2022-09-12T08:02:49;101050.88;;;25.61;100.00
7670;BME280;3877;42.562;27.636;2022-09-12T08:05:17;100989.09;;;25.35;100.00
7670;BME280;3877;42.562;27.636;2022-09-12T08:07:45;101039.25;;;25.82;100.00
7670;BME280;3877;42.562;27.636;2022-09-12T08:10:12;101030.66;;;25.82;100.00
7670;BME280;3877;42.562;27.636;2022-09-12T08:12:41;100975.03;;;25.65;100.00
7670;BME280;3877;42.562;27.636;2022-09-12T08:15:08;101027.28;;;25.98;100.00
7670;BME280;3877;42.562;27.636;2022-09-12T08:17:36;101021.53;;;25.98;100.00
7670;BME280;3877;42.562;27.636;2022-09-12T08:20:04;101010.72;;;26.16;100.00
7670;BME280;3877;42.562;27.636;2022-09-12T08:22:31;101005.50;;;26.04;100.00
7670;BME280;3877;42.562;27.636;2022-09-12T08:25:00;101007.75;;;26.30;100.00
7670;BME280;3877;42.562;27.636;2022-09-12T08:27:27;100999.88;;;26.38;100.00
7670;BME280;3877;42.562;27.636;2022-09-12T08:29:54;100982.56;;;26.45;100.00
7670;BME280;3877;42.562;27.636;2022-09-12T08:32:21;100999.63;;;26.63;100.00
7670;BME280;3877;42.562;27.636;2022-09-12T08:34:49;100982.34;;;26.66;100.00
7670;BME280;3877;42.562;27.636;2022-09-12T08:37:16;100983.94;;;26.71;100.00
7670;BME280;3877;42.562;27.636;2022-09-12T08:39:43;100978.16;;;26.74;100.00
7670;BME280;3877;42.562;27.636;2022-09-12T08:42:21;100982.94;;;26.88;100.00
7670;BME280;3877;42.562;27.636;2022-09-12T08:45:00;100985.84;;;27.18;100.00
7670;BME280;3877;42.562;27.636;2022-09-12T08:47:33;100973.06;;;27.23;99.04
7670;BME280;3877;42.562;27.636;2022-09-12T08:50:09;100955.38;;;26.94;100.00
7670;BME280;3877;42.562;27.636;2022-09-12T08:52:41;100961.06;;;26.97;96.02
7670;BME280;3877;42.562;27.636;2022-09-12T08:55:28;100962.09;;;26.77;94.01
7670;BME280;3877;42.562;27.636;2022-09-12T08:57:58;100969.19;;;26.69;99.72
7670;BME280;3877;42.562;27.636;2022-09-12T09:00:34;100969.44;;;26.81;97.48
7670;BME280;3877;42.562;27.636;2022-09-12T09:03:28;100967.25;;;26.96;98.31
7670;BME280;3877;42.562;27.636;2022-09-12T09:06:06;100966.88;;;26.94;88.35
7670;BME280;3877;42.562;27.636;2022-09-12T09:08:45;100971.16;;;27.09;90.83
7670;BME280;3877;42.562;27.636;2022-09-12T09:11:34;100953.72;;;27.23;86.46
7670;BME280;3877;42.562;27.636;2022-09-12T09:14:20;100961.66;;;27.46;87.00
7670;BME280;3877;42.562;27.636;2022-09-12T09:17:10;100954.78;;;27.90;84.72
7670;BME280;3877;42.562;27.636;2022-09-12T09:19:42;100957.63;;;27.94;81.58
7670;BME280;3877;42.562;27.636;2022-09-12T09:22:16;100954.44;;;27.88;84.46
7670;BME280;3877;42.562;27.636;2022-09-12T09:24:49;100950.53;;;27.75;88.78
7670;BME280;3877;42.562;27.636;2022-09-12T09:27:26;100947.34;;;27.69;86.42
7670;BME280;3877;42.562;27.636;2022-09-12T09:29:59;100945.59;;;27.49;88.97
7670;BME280;3877;42.562;27.636;2022-09-12T09:32:29;100939.94;;;27.11;89.85
7670;BME280;3877;42.562;27.636;2022-09-12T09:35:00;100948.34;;;26.95;86.23
7670;BME280;3877;42.562;27.636;2022-09-12T09:37:33;100941.84;;;26.91;91.38
7670;BME280;3877;42.562;27.636;2022-09-12T09:40:07;100938.50;;;26.96;91.45
7670;BME280;3877;42.562;27.636;2022-09-12T09:42:44;100944.63;;;27.28;89.36
7670;BME280;3877;42.562;27.636;2022-09-12T09:45:19;100942.91;;;27.34;83.80
7670;BME280;3877;42.562;27.636;2022-09-12T09:47:50;100932.34;;;27.24;80.94
7670;BME280;3877;42.562;27.636;2022-09-12T09:50:20;100932.41;;;27.21;79.65
7670;BME280;3877;42.562;27.636;2022-09-12T09:52:48;100896.59;;;26.95;78.43
7670;BME280;3877;42.562;27.636;2022-09-12T09:55:20;100939.75;;;27.25;79.69
7670;BME280;3877;42.562;27.636;2022-09-12T09:57:49;100935.41;;;27.40;74.74
7670;BME280;3877;42.562;27.636;2022-09-12T10:00:30;100935.16;;;27.58;76.77
7670;BME280;3877;42.562;27.636;2022-09-12T10:03:26;100931.16;;;28.02;80.64
7670;BME280;3877;42.562;27.636;2022-09-12T10:05:57;100931.75;;;28.17;78.36
7670;BME280;3877;42.562;27.636;2022-09-12T10:08:26;100932.56;;;28.17;76.19
7670;BME280;3877;42.562;27.636;2022-09-12T10:10:56;100907.72;;;27.77;76.57
7670;BME280;3877;42.562;27.636;2022-09-12T10:13:27;100928.06;;;27.90;74.15
7670;BME280;3877;42.562;27.636;2022-09-12T10:16:00;100932.56;;;28.17;73.48
7670;BME280;3877;42.562;27.636;2022-09-12T10:18:39;100934.78;;;28.30;73.40
7670;BME280;3877;42.562;27.636;2022-09-12T10:21:29;100925.25;;;28.09;74.27
7670;BME280;3877;42.562;27.636;2022-09-12T10:24:05;100893.66;;;27.82;74.30
7670;BME280;3877;42.562;27.636;2022-09-12T10:26:41;100934.78;;;28.30;75.43
7670;BME280;3877;42.562;27.636;2022-09-12T10:29:14;100930.94;;;28.59;73.97
7670;BME280;3877;42.562;27.636;2022-09-12T10:31:46;100924.44;;;28.75;71.86
7670;BME280;3877;42.562;27.636;2022-09-12T10:34:25;100939.75;;;28.72;68.36
7670;BME280;3877;42.562;27.636;2022-09-12T10:37:00;100933.91;;;28.76;67.00
7670;BME280;3877;42.562;27.636;2022-09-12T10:39:28;100929.22;;;28.62;64.47
7670;BME280;3877;42.562;27.636;2022-09-12T10:41:56;100930.59;;;28.34;71.46
7670;BME280;3877;42.562;27.636;2022-09-12T10:44:25;100933.66;;;28.00;70.25
7670;BME280;3877;42.562;27.636;2022-09-12T10:46:55;100893.88;;;27.41;74.11
7670;BME280;3877;42.562;27.636;2022-09-12T10:49:28;100895.00;;;27.51;74.59
7670;BME280;3877;42.562;27.636;2022-09-12T10:51:57;100928.84;;;27.67;74.70
7670;BME280;3877;42.562;27.636;2022-09-12T10:54:42;100938.16;;;27.78;75.26
7670;BME280;3877;42.562;27.636;2022-09-12T10:57:36;100937.16;;;27.88;73.03
7670;BME280;3877;42.562;27.636;2022-09-12T11:00:10;100934.00;;;27.56;70.78
7670;BME280;3877;42.562;27.636;2022-09-12T11:02:50;100930.41;;;27.45;69.76
7670;BME280;3877;42.562;27.636;2022-09-12T11:05:29;100931.97;;;27.53;71.57
7670;BME280;3877;42.562;27.636;2022-09-12T11:08:11;100934.75;;;27.60;69.02
7670;BME280;3877;42.562;27.636;2022-09-12T11:10:46;100932.50;;;27.71;71.01
7670;BME280;3877;42.562;27.636;2022-09-12T11:13:28;100928.25;;;27.79;71.71
7670;BME280;3877;42.562;27.636;2022-09-12T11:16:09;100924.88;;;27.84;68.40
7670;BME280;3877;42.562;27.636;2022-09-12T11:18:53;100931.41;;;27.88;66.53
7670;BME280;3877;42.562;27.636;2022-09-12T11:21:38;100926.13;;;28.06;69.19
7670;BME280;3877;42.562;27.636;2022-09-12T11:27:22;100886.06;;;28.39;67.43
7670;BME280;3877;42.562;27.636;2022-09-12T11:29:57;100919.41;;;28.99;65.12
7670;BME280;3877;42.562;27.636;2022-09-12T11:32:51;100922.69;;;28.81;64.69
7670;BME280;3877;42.562;27.636;2022-09-12T11:35:27;100912.94;;;28.52;62.56
7670;BME280;3877;42.562;27.636;2022-09-12T11:38:13;100801.44;;;27.39;100.00
7670;BME280;3877;42.562;27.636;2022-09-12T11:40:48;100914.50;;;28.37;100.00
7670;BME280;3877;42.562;27.636;2022-09-12T11:43:24;100925.66;;;28.35;100.00
7670;BME280;3877;42.562;27.636;2022-09-12T11:45:59;100924.50;;;28.05;100.00
7670;BME280;3877;42.562;27.636;2022-09-12T11:48:36;100905.84;;;27.90;100.00
7670;BME280;3877;42.562;27.636;2022-09-12T11:51:13;100919.63;;;27.79;100.00
7670;BME280;3877;42.562;27.636;2022-09-12T11:53:43;100929.09;;;27.53;100.00
7670;BME280;3877;42.562;27.636;2022-09-12T11:56:15;100923.91;;;27.40;100.00
7670;BME280;3877;42.562;27.636;2022-09-12T11:58:48;100927.47;;;27.21;100.00
7670;BME280;3877;42.562;27.636;2022-09-12T12:01:20;100924.97;;;26.93;100.00
7670;BME280;3877;42.562;27.636;2022-09-12T12:03:49;100927.75;;;27.00;100.00
7670;BME280;3877;42.562;27.636;2022-09-12T12:06:21;100919.22;;;26.93;100.00
7670;BME280;3877;42.562;27.636;2022-09-12T12:08:50;100922.06;;;26.96;100.00
7670;BME280;3877;42.562;27.636;2022-09-12T12:11:27;100924.34;;;27.09;100.00
7670;BME280;3877;42.562;27.636;2022-09-12T12:13:57;100920.69;;;27.08;100.00
7670;BME280;3877;42.562;27.636;2022-09-12T12:16:27;100911.13;;;27.15;100.00
7670;BME280;3877;42.562;27.636;2022-09-12T12:18:57;100912.97;;;27.28;100.00
7670;BME280;3877;42.562;27.636;2022-09-12T12:21:37;100914.78;;;27.46;100.00
7670;BME280;3877;42.562;27.636;2022-09-12T12:24:15;100922.75;;;27.65;100.00
7670;BME280;3877;42.562;27.636;2022-09-12T12:27:01;100918.09;;;27.71;100.00
7670;BME280;3877;42.562;27.636;2022-09-12T12:29:38;100920.50;;;27.99;100.00
7670;BME280;3877;42.562;27.636;2022-09-12T12:32:23;100922.78;;;28.35;100.00
7670;BME280;3877;42.562;27.636;2022-09-12T12:59:23;100918.63;;;27.89;100.00
7670;BME280;3877;42.562;27.636;2022-09-12T13:01:53;100916.38;;;28.00;100.00
7670;BME280;3877;42.562;27.636;2022-09-12T13:04:23;100926.72;;;27.98;100.00
7670;BME280;3877;42.562;27.636;2022-09-12T13:06:57;100919.25;;;27.77;100.00
7670;BME280;3877;42.562;27.636;2022-09-12T13:09:29;100927.09;;;27.50;100.00
7670;BME280;3877;42.562;27.636;2022-09-12T13:12:01;100918.38;;;27.26;100.00
7670;BME280;3877;42.562;27.636;2022-09-12T13:17:58;100881.25;;;26.75;100.00
7670;BME280;3877;42.562;27.636;2022-09-12T13:20:32;100927.09;;;26.85;100.00
7670;BME280;3877;42.562;27.636;2022-09-12T13:23:03;100898.69;;;26.61;100.00
7670;BME280;3877;42.562;27.636;2022-09-12T13:25:32;100915.22;;;26.49;100.00
7670;BME280;3877;42.562;27.636;2022-09-12T13:28:02;100903.84;;;26.39;100.00
7670;BME280;3877;42.562;27.636;2022-09-12T13:30:31;100929.28;;;26.40;100.00
7670;BME280;3877;42.562;27.636;2022-09-12T13:33:15;100932.66;;;26.28;100.00
7670;BME280;3877;42.562;27.636;2022-09-12T13:35:59;100814.41;;;25.58;100.00
7670;BME280;3877;42.562;27.636;2022-09-12T13:38:36;100921.13;;;26.35;100.00
7670;BME280;3877;42.562;27.636;2022-09-12T13:41:21;100919.25;;;26.55;100.00
7670;BME280;3877;42.562;27.636;2022-09-12T13:43:50;100913.97;;;26.88;100.00
7670;BME280;3877;42.562;27.636;2022-09-12T13:46:29;100913.47;;;27.23;100.00
7670;BME280;3877;42.562;27.636;2022-09-12T13:49:00;100909.69;;;27.57;100.00